sensor_id;sensor_type;location;lat;lon;timestamp;temperature;humidity
59075;DHT22;44860;53.020;6.738;2022-10-15T00:00:33;12.70;99.90
59075;DHT22;44860;53.020;6.738;2022-10-15T00:02:58;12.70;99.90
59075;DHT22;44860;53.020;6.738;2022-10-15T00:05:24;12.70;99.90
59075;DHT22;44860;53.020;6.738;2022-10-15T00:07:51;12.70;99.90
59075;DHT22;44860;53.020;6.738;2022-10-15T00:10:17;12.70;99.90
59075;DHT22;44860;53.020;6.738;2022-10-15T00:12:43;12.70;99.90
59075;DHT22;44860;53.020;6.738;2022-10-15T00:15:09;12.60;99.90
59075;DHT22;44860;53.020;6.738;2022-10-15T00:17:35;12.70;99.90
59075;DHT22;44860;53.020;6.738;2022-10-15T00:20:04;12.70;99.90
59075;DHT22;44860;53.020;6.738;2022-10-15T00:22:30;12.70;99.90
59075;DHT22;44860;53.020;6.738;2022-10-15T00:24:56;12.60;99.90
59075;DHT22;44860;53.020;6.738;2022-10-15T00:27:21;12.70;99.90
59075;DHT22;44860;53.020;6.738;2022-10-15T00:29:47;12.70;99.90
59075;DHT22;44860;53.020;6.738;2022-10-15T00:32:13;12.70;99.90
59075;DHT22;44860;53.020;6.738;2022-10-15T00:34:39;12.60;99.90
59075;DHT22;44860;53.020;6.738;2022-10-15T00:37:05;12.60;99.90
59075;DHT22;44860;53.020;6.738;2022-10-15T00:39:30;12.60;99.90
59075;DHT22;44860;53.020;6.738;2022-10-15T00:41:56;12.60;99.90
59075;DHT22;44860;53.020;6.738;2022-10-15T00:49:28;12.60;99.90
59075;DHT22;44860;53.020;6.738;2022-10-15T00:52:02;12.60;99.90
59075;DHT22;44860;53.020;6.738;2022-10-15T00:54:35;12.60;99.90
59075;DHT22;44860;53.020;6.738;2022-10-15T00:57:02;12.60;99.90
59075;DHT22;44860;53.020;6.738;2022-10-15T00:59:28;12.50;99.90
59075;DHT22;44860;53.020;6.738;2022-10-15T01:01:55;12.60;99.90
59075;DHT22;44860;53.020;6.738;2022-10-15T01:04:24;12.50;99.90
59075;DHT22;44860;53.020;6.738;2022-10-15T01:06:49;12.60;99.90
59075;DHT22;44860;53.020;6.738;2022-10-15T01:09:15;12.60;99.90
59075;DHT22;44860;53.020;6.738;2022-10-15T01:11:48;12.50;99.90
59075;DHT22;44860;53.020;6.738;2022-10-15T01:28:50;12.40;99.90
59075;DHT22;44860;53.020;6.738;2022-10-15T01:34:03;12.50;99.90
59075;DHT22;44860;53.020;6.738;2022-10-15T01:36:39;12.50;99.90
59075;DHT22;44860;53.020;6.738;2022-10-15T01:39:15;12.50;99.90
59075;DHT22;44860;53.020;6.738;2022-10-15T01:41:52;12.40;99.90
59075;DHT22;44860;53.020;6.738;2022-10-15T01:44:26;12.40;99.90
59075;DHT22;44860;53.020;6.738;2022-10-15T01:47:02;12.40;99.90
59075;DHT22;44860;53.020;6.738;2022-10-15T01:49:32;12.40;99.90
59075;DHT22;44860;53.020;6.738;2022-10-15T01:52:03;12.40;99.90
59075;DHT22;44860;53.020;6.738;2022-10-15T01:54:30;12.40;99.90
59075;DHT22;44860;53.020;6.738;2022-10-15T01:56:56;12.40;99.90
59075;DHT22;44860;53.020;6.738;2022-10-15T01:59:25;12.40;99.90
59075;DHT22;44860;53.020;6.738;2022-10-15T02:01:52;12.40;99.90
59075;DHT22;44860;53.020;6.738;2022-10-15T02:04:25;12.40;99.90
59075;DHT22;44860;53.020;6.738;2022-10-15T02:18:46;12.40;99.90
59075;DHT22;44860;53.020;6.738;2022-10-15T02:21:25;12.30;99.90
59075;DHT22;44860;53.020;6.738;2022-10-15T02:23:57;12.40;99.90
59075;DHT22;44860;53.020;6.738;2022-10-15T02:26:26;12.40;99.90
59075;DHT22;44860;53.020;6.738;2022-10-15T02:28:57;12.40;99.90
59075;DHT22;44860;53.020;6.738;2022-10-15T02:31:24;12.40;99.90
59075;DHT22;44860;53.020;6.738;2022-10-15T02:33:53;12.30;99.90
59075;DHT22;44860;53.020;6.738;2022-10-15T02:36:20;12.30;99.90
59075;DHT22;44860;53.020;6.738;2022-10-15T02:38:47;12.30;99.90
59075;DHT22;44860;53.020;6.738;2022-10-15T02:41:13;12.30;99.90
59075;DHT22;44860;53.020;6.738;2022-10-15T02:43:39;12.30;99.90
59075;DHT22;44860;53.020;6.738;2022-10-15T02:46:06;12.30;99.90
59075;DHT22;44860;53.020;6.738;2022-10-15T02:48:33;12.30;99.90
59075;DHT22;44860;53.020;6.738;2022-10-15T02:50:59;12.30;99.90
59075;DHT22;44860;53.020;6.738;2022-10-15T02:53:24;12.30;99.90
59075;DHT22;44860;53.020;6.738;2022-10-15T02:55:50;12.30;99.90
59075;DHT22;44860;53.020;6.738;2022-10-15T02:58:15;12.30;99.90
59075;DHT22;44860;53.020;6.738;2022-10-15T03:00:41;12.30;99.90
59075;DHT22;44860;53.020;6.738;2022-10-15T03:03:07;12.30;99.90
59075;DHT22;44860;53.020;6.738;2022-10-15T03:05:33;12.30;99.90
59075;DHT22;44860;53.020;6.738;2022-10-15T03:07:59;12.30;99.90
59075;DHT22;44860;53.020;6.738;2022-10-15T03:10:25;12.30;99.90
59075;DHT22;44860;53.020;6.738;2022-10-15T03:12:51;12.20;99.90
59075;DHT22;44860;53.020;6.738;2022-10-15T03:15:16;12.20;99.90
59075;DHT22;44860;53.020;6.738;2022-10-15T03:17:42;12.30;99.90
59075;DHT22;44860;53.020;6.738;2022-10-15T03:20:08;12.30;99.90
59075;DHT22;44860;53.020;6.738;2022-10-15T03:22:34;12.20;99.90
59075;DHT22;44860;53.020;6.738;2022-10-15T03:24:59;12.20;99.90
59075;DHT22;44860;53.020;6.738;2022-10-15T03:27:25;12.30;99.90
59075;DHT22;44860;53.020;6.738;2022-10-15T03:29:50;12.30;99.90
59075;DHT22;44860;53.020;6.738;2022-10-15T03:32:16;12.20;99.90
59075;DHT22;44860;53.020;6.738;2022-10-15T03:34:42;12.20;99.90
59075;DHT22;44860;53.020;6.738;2022-10-15T03:37:07;12.30;99.90
59075;DHT22;44860;53.020;6.738;2022-10-15T03:39:33;12.20;99.90
59075;DHT22;44860;53.020;6.738;2022-10-15T03:41:59;12.30;99.90
59075;DHT22;44860;53.020;6.738;2022-10-15T03:44:24;12.20;99.90
59075;DHT22;44860;53.020;6.738;2022-10-15T03:46:50;12.20;99.90
59075;DHT22;44860;53.020;6.738;2022-10-15T03:49:16;12.30;99.90
59075;DHT22;44860;53.020;6.738;2022-10-15T03:51:41;12.20;99.90
59075;DHT22;44860;53.020;6.738;2022-10-15T03:54:07;12.20;99.90
59075;DHT22;44860;53.020;6.738;2022-10-15T03:56:33;12.20;99.90
59075;DHT22;44860;53.020;6.738;2022-10-15T03:58:58;12.20;99.90
59075;DHT22;44860;53.020;6.738;2022-10-15T04:01:24;12.20;99.90
59075;DHT22;44860;53.020;6.738;2022-10-15T04:03:53;12.20;99.90
59075;DHT22;44860;53.020;6.738;2022-10-15T04:06:19;12.20;99.90
59075;DHT22;44860;53.020;6.738;2022-10-15T04:08:44;12.20;99.90
59075;DHT22;44860;53.020;6.738;2022-10-15T04:11:10;12.20;99.90
59075;DHT22;44860;53.020;6.738;2022-10-15T04:13:36;12.10;99.90
59075;DHT22;44860;53.020;6.738;2022-10-15T04:16:05;12.20;99.90
59075;DHT22;44860;53.020;6.738;2022-10-15T04:18:31;12.10;99.90
59075;DHT22;44860;53.020;6.738;2022-10-15T04:21:00;12.10;99.90
59075;DHT22;44860;53.020;6.738;2022-10-15T04:23:26;12.10;99.90
59075;DHT22;44860;53.020;6.738;2022-10-15T04:25:52;12.10;99.90
59075;DHT22;44860;53.020;6.738;2022-10-15T04:28:18;12.20;99.90
59075;DHT22;44860;53.020;6.738;2022-10-15T04:30:43;12.10;99.90
59075;DHT22;44860;53.020;6.738;2022-10-15T04:33:09;12.10;99.90
59075;DHT22;44860;53.020;6.738;2022-10-15T04:35:35;12.10;99.90
59075;DHT22;44860;53.020;6.738;2022-10-15T04:38:01;12.10;99.90
59075;DHT22;44860;53.020;6.738;2022-10-15T04:40:27;12.10;99.90
59075;DHT22;44860;53.020;6.738;2022-10-15T04:42:52;12.10;99.90
59075;DHT22;44860;53.020;6.738;2022-10-15T04:45:18;12.10;99.90
59075;DHT22;44860;53.020;6.738;2022-10-15T04:47:44;12.10;99.90
59075;DHT22;44860;53.020;6.738;2022-10-15T04:50:10;12.10;99.90
59075;DHT22;44860;53.020;6.738;2022-10-15T04:52:36;12.10;99.90
59075;DHT22;44860;53.020;6.738;2022-10-15T04:55:01;12.10;99.90
59075;DHT22;44860;53.020;6.738;2022-10-15T04:57:30;12.00;99.90
59075;DHT22;44860;53.020;6.738;2022-10-15T04:59:56;12.10;99.90
59075;DHT22;44860;53.020;6.738;2022-10-15T05:02:22;12.00;99.90
59075;DHT22;44860;53.020;6.738;2022-10-15T05:04:47;12.00;99.90
59075;DHT22;44860;53.020;6.738;2022-10-15T05:07:13;12.00;99.90
59075;DHT22;44860;53.020;6.738;2022-10-15T05:09:38;12.00;99.90
59075;DHT22;44860;53.020;6.738;2022-10-15T05:12:04;12.00;99.90
59075;DHT22;44860;53.020;6.738;2022-10-15T05:14:30;12.00;99.90
59075;DHT22;44860;53.020;6.738;2022-10-15T05:16:55;12.00;99.90
59075;DHT22;44860;53.020;6.738;2022-10-15T05:19:21;12.00;99.90
59075;DHT22;44860;53.020;6.738;2022-10-15T05:21:47;12.00;99.90
59075;DHT22;44860;53.020;6.738;2022-10-15T05:24:12;12.00;99.90
59075;DHT22;44860;53.020;6.738;2022-10-15T05:26:38;12.00;99.90
59075;DHT22;44860;53.020;6.738;2022-10-15T05:29:03;12.00;99.90
59075;DHT22;44860;53.020;6.738;2022-10-15T05:31:31;12.00;99.90
59075;DHT22;44860;53.020;6.738;2022-10-15T05:33:57;12.00;99.90
59075;DHT22;44860;53.020;6.738;2022-10-15T05:36:26;12.00;99.90
59075;DHT22;44860;53.020;6.738;2022-10-15T05:41:19;12.00;99.90
59075;DHT22;44860;53.020;6.738;2022-10-15T05:43:46;12.00;99.90
59075;DHT22;44860;53.020;6.738;2022-10-15T05:46:12;12.00;99.90
59075;DHT22;44860;53.020;6.738;2022-10-15T05:48:38;12.00;99.90
59075;DHT22;44860;53.020;6.738;2022-10-15T05:51:05;11.90;99.90
59075;DHT22;44860;53.020;6.738;2022-10-15T05:53:31;12.00;99.90
59075;DHT22;44860;53.020;6.738;2022-10-15T05:55:57;11.90;99.90
59075;DHT22;44860;53.020;6.738;2022-10-15T05:58:27;11.90;99.90
59075;DHT22;44860;53.020;6.738;2022-10-15T06:00:58;12.00;99.90
59075;DHT22;44860;53.020;6.738;2022-10-15T06:03:25;11.90;99.90
59075;DHT22;44860;53.020;6.738;2022-10-15T06:05:51;11.90;99.90
59075;DHT22;44860;53.020;6.738;2022-10-15T06:08:17;11.90;99.90
59075;DHT22;44860;53.020;6.738;2022-10-15T06:10:43;11.90;99.90
59075;DHT22;44860;53.020;6.738;2022-10-15T06:13:09;12.00;99.90
59075;DHT22;44860;53.020;6.738;2022-10-15T06:15:41;11.90;99.90
59075;DHT22;44860;53.020;6.738;2022-10-15T06:18:08;11.90;99.90
59075;DHT22;44860;53.020;6.738;2022-10-15T06:20:34;11.90;99.90
59075;DHT22;44860;53.020;6.738;2022-10-15T06:23:00;11.90;99.90
59075;DHT22;44860;53.020;6.738;2022-10-15T06:25:26;11.90;99.90
59075;DHT22;44860;53.020;6.738;2022-10-15T06:27:52;11.90;99.90
59075;DHT22;44860;53.020;6.738;2022-10-15T06:30:18;11.90;99.90
59075;DHT22;44860;53.020;6.738;2022-10-15T06:32:49;11.90;99.90
59075;DHT22;44860;53.020;6.738;2022-10-15T06:35:16;11.90;99.90
59075;DHT22;44860;53.020;6.738;2022-10-15T06:37:42;11.90;99.90
59075;DHT22;44860;53.020;6.738;2022-10-15T06:40:09;11.90;99.90
59075;DHT22;44860;53.020;6.738;2022-10-15T06:42:35;12.00;99.90
59075;DHT22;44860;53.020;6.738;2022-10-15T06:45:00;12.00;99.90
59075;DHT22;44860;53.020;6.738;2022-10-15T06:47:26;12.00;99.90
59075;DHT22;44860;53.020;6.738;2022-10-15T06:49:52;12.00;99.90
59075;DHT22;44860;53.020;6.738;2022-10-15T06:52:17;12.00;99.90
59075;DHT22;44860;53.020;6.738;2022-10-15T06:54:43;12.00;99.90
59075;DHT22;44860;53.020;6.738;2022-10-15T06:57:09;12.00;99.90
59075;DHT22;44860;53.020;6.738;2022-10-15T06:59:34;12.00;99.90
59075;DHT22;44860;53.020;6.738;2022-10-15T07:02:00;12.00;99.90
59075;DHT22;44860;53.020;6.738;2022-10-15T07:04:26;12.10;99.90
59075;DHT22;44860;53.020;6.738;2022-10-15T07:06:51;12.10;99.90
59075;DHT22;44860;53.020;6.738;2022-10-15T07:09:17;12.10;99.90
59075;DHT22;44860;53.020;6.738;2022-10-15T07:11:43;12.10;99.90
59075;DHT22;44860;53.020;6.738;2022-10-15T07:14:09;12.10;99.90
59075;DHT22;44860;53.020;6.738;2022-10-15T07:16:35;12.20;99.90
59075;DHT22;44860;53.020;6.738;2022-10-15T07:19:02;12.20;99.90
59075;DHT22;44860;53.020;6.738;2022-10-15T07:21:27;12.20;99.90
59075;DHT22;44860;53.020;6.738;2022-10-15T07:23:53;12.20;99.90
59075;DHT22;44860;53.020;6.738;2022-10-15T07:26:19;12.20;99.90
59075;DHT22;44860;53.020;6.738;2022-10-15T07:28:44;12.20;99.90
59075;DHT22;44860;53.020;6.738;2022-10-15T07:31:10;12.20;99.90
59075;DHT22;44860;53.020;6.738;2022-10-15T07:33:36;12.30;99.90
59075;DHT22;44860;53.020;6.738;2022-10-15T07:36:07;12.30;99.90
59075;DHT22;44860;53.020;6.738;2022-10-15T07:38:34;12.30;99.90
59075;DHT22;44860;53.020;6.738;2022-10-15T07:41:01;12.40;99.90
59075;DHT22;44860;53.020;6.738;2022-10-15T07:43:27;12.40;99.90
59075;DHT22;44860;53.020;6.738;2022-10-15T07:45:53;12.40;99.90
59075;DHT22;44860;53.020;6.738;2022-10-15T07:48:18;12.50;99.90
59075;DHT22;44860;53.020;6.738;2022-10-15T07:50:45;12.50;99.90
59075;DHT22;44860;53.020;6.738;2022-10-15T07:53:10;12.50;99.90
59075;DHT22;44860;53.020;6.738;2022-10-15T07:55:36;12.50;99.90
59075;DHT22;44860;53.020;6.738;2022-10-15T07:58:03;12.60;99.90
59075;DHT22;44860;53.020;6.738;2022-10-15T08:00:31;12.60;99.90
59075;DHT22;44860;53.020;6.738;2022-10-15T08:02:57;12.60;99.90
59075;DHT22;44860;53.020;6.738;2022-10-15T08:05:22;12.70;99.90
59075;DHT22;44860;53.020;6.738;2022-10-15T08:07:48;12.70;99.90
59075;DHT22;44860;53.020;6.738;2022-10-15T08:10:14;12.70;99.90
59075;DHT22;44860;53.020;6.738;2022-10-15T08:12:40;12.70;99.90
59075;DHT22;44860;53.020;6.738;2022-10-15T08:15:06;12.70;99.90
59075;DHT22;44860;53.020;6.738;2022-10-15T08:17:32;12.80;99.90
59075;DHT22;44860;53.020;6.738;2022-10-15T08:19:58;12.80;99.90
59075;DHT22;44860;53.020;6.738;2022-10-15T08:22:24;12.90;99.90
59075;DHT22;44860;53.020;6.738;2022-10-15T08:24:49;12.90;99.90
59075;DHT22;44860;53.020;6.738;2022-10-15T08:27:16;13.00;99.90
59075;DHT22;44860;53.020;6.738;2022-10-15T08:29:42;13.00;99.90
59075;DHT22;44860;53.020;6.738;2022-10-15T08:32:07;13.10;99.90
59075;DHT22;44860;53.020;6.738;2022-10-15T08:34:33;13.20;99.90
59075;DHT22;44860;53.020;6.738;2022-10-15T08:36:59;13.20;99.90
59075;DHT22;44860;53.020;6.738;2022-10-15T08:39:24;13.20;99.90
59075;DHT22;44860;53.020;6.738;2022-10-15T08:41:56;13.30;99.90
59075;DHT22;44860;53.020;6.738;2022-10-15T08:44:29;13.30;99.90
59075;DHT22;44860;53.020;6.738;2022-10-15T08:47:06;13.40;99.90
59075;DHT22;44860;53.020;6.738;2022-10-15T08:49:51;13.50;99.90
59075;DHT22;44860;53.020;6.738;2022-10-15T08:54:46;13.60;99.90
59075;DHT22;44860;53.020;6.738;2022-10-15T09:00:20;13.70;99.90
59075;DHT22;44860;53.020;6.738;2022-10-15T09:03:23;13.80;99.90
59075;DHT22;44860;53.020;6.738;2022-10-15T09:05:56;13.80;99.90
59075;DHT22;44860;53.020;6.738;2022-10-15T09:08:37;13.80;99.90
59075;DHT22;44860;53.020;6.738;2022-10-15T09:14:12;13.70;99.90
59075;DHT22;44860;53.020;6.738;2022-10-15T09:16:39;13.70;99.90
59075;DHT22;44860;53.020;6.738;2022-10-15T09:19:14;13.70;99.90
59075;DHT22;44860;53.020;6.738;2022-10-15T09:21:41;13.80;99.90
59075;DHT22;44860;53.020;6.738;2022-10-15T09:24:10;13.70;99.90
59075;DHT22;44860;53.020;6.738;2022-10-15T09:27:03;13.80;99.90
59075;DHT22;44860;53.020;6.738;2022-10-15T09:29:52;13.80;99.90
59075;DHT22;44860;53.020;6.738;2022-10-15T09:32:28;13.80;99.90
59075;DHT22;44860;53.020;6.738;2022-10-15T09:35:18;13.70;99.90
59075;DHT22;44860;53.020;6.738;2022-10-15T09:43:27;13.70;99.90
59075;DHT22;44860;53.020;6.738;2022-10-15T09:45:56;13.70;99.90
59075;DHT22;44860;53.020;6.738;2022-10-15T09:48:23;13.70;99.90
59075;DHT22;44860;53.020;6.738;2022-10-15T09:51:22;13.70;99.90
59075;DHT22;44860;53.020;6.738;2022-10-15T09:54:19;13.70;99.90
59075;DHT22;44860;53.020;6.738;2022-10-15T09:56:45;13.70;99.90
59075;DHT22;44860;53.020;6.738;2022-10-15T09:59:17;13.70;99.90
59075;DHT22;44860;53.020;6.738;2022-10-15T10:02:00;13.60;99.90
59075;DHT22;44860;53.020;6.738;2022-10-15T10:04:28;13.60;99.90
59075;DHT22;44860;53.020;6.738;2022-10-15T10:06:57;13.60;99.90
59075;DHT22;44860;53.020;6.738;2022-10-15T10:09:57;13.60;99.90
59075;DHT22;44860;53.020;6.738;2022-10-15T10:12:25;13.60;99.90
59075;DHT22;44860;53.020;6.738;2022-10-15T10:17:56;13.50;99.90
59075;DHT22;44860;53.020;6.738;2022-10-15T10:20:27;13.50;99.90
59075;DHT22;44860;53.020;6.738;2022-10-15T10:22:55;13.50;99.90
59075;DHT22;44860;53.020;6.738;2022-10-15T10:25:37;13.50;99.90
59075;DHT22;44860;53.020;6.738;2022-10-15T10:28:20;13.50;99.90
59075;DHT22;44860;53.020;6.738;2022-10-15T10:31:01;13.50;99.90
59075;DHT22;44860;53.020;6.738;2022-10-15T10:33:29;13.60;99.90
59075;DHT22;44860;53.020;6.738;2022-10-15T10:35:55;13.60;99.90
59075;DHT22;44860;53.020;6.738;2022-10-15T10:38:28;13.60;99.90
59075;DHT22;44860;53.020;6.738;2022-10-15T10:41:08;13.60;99.90
59075;DHT22;44860;53.020;6.738;2022-10-15T10:43:40;13.60;99.90
59075;DHT22;44860;53.020;6.738;2022-10-15T10:46:18;13.60;99.90
59075;DHT22;44860;53.020;6.738;2022-10-15T10:48:49;13.60;99.90
59075;DHT22;44860;53.020;6.738;2022-10-15T10:51:26;13.70;99.90
59075;DHT22;44860;53.020;6.738;2022-10-15T10:53:55;13.80;99.90
59075;DHT22;44860;53.020;6.738;2022-10-15T10:56:36;13.80;99.90
59075;DHT22;44860;53.020;6.738;2022-10-15T10:59:15;13.80;99.90
59075;DHT22;44860;53.020;6.738;2022-10-15T11:01:44;13.90;99.90
59075;DHT22;44860;53.020;6.738;2022-10-15T11:04:24;14.00;99.90
59075;DHT22;44860;53.020;6.738;2022-10-15T11:07:00;14.00;99.90
59075;DHT22;44860;53.020;6.738;2022-10-15T11:15:35;14.20;99.90
59075;DHT22;44860;53.020;6.738;2022-10-15T11:21:09;14.30;99.90
59075;DHT22;44860;53.020;6.738;2022-10-15T11:29:11;14.50;99.90
59075;DHT22;44860;53.020;6.738;2022-10-15T11:37:08;14.60;99.90
59075;DHT22;44860;53.020;6.738;2022-10-15T11:39:59;14.60;99.90
59075;DHT22;44860;53.020;6.738;2022-10-15T11:45:29;14.60;99.90
59075;DHT22;44860;53.020;6.738;2022-10-15T11:48:04;14.70;99.90
59075;DHT22;44860;53.020;6.738;2022-10-15T11:56:03;14.70;99.90
59075;DHT22;44860;53.020;6.738;2022-10-15T11:58:38;14.80;99.90
59075;DHT22;44860;53.020;6.738;2022-10-15T12:01:18;14.70;99.90
59075;DHT22;44860;53.020;6.738;2022-10-15T12:04:08;14.80;99.90
59075;DHT22;44860;53.020;6.738;2022-10-15T12:06:41;14.80;99.90
59075;DHT22;44860;53.020;6.738;2022-10-15T12:09:14;14.80;99.90
59075;DHT22;44860;53.020;6.738;2022-10-15T12:11:51;14.80;99.90
59075;DHT22;44860;53.020;6.738;2022-10-15T12:17:22;14.90;99.90
59075;DHT22;44860;53.020;6.738;2022-10-15T12:19:57;14.90;99.90
59075;DHT22;44860;53.020;6.738;2022-10-15T12:28:14;15.00;99.90
59075;DHT22;44860;53.020;6.738;2022-10-15T12:30:41;15.10;99.90
59075;DHT22;44860;53.020;6.738;2022-10-15T12:33:33;15.10;99.90
59075;DHT22;44860;53.020;6.738;2022-10-15T12:36:16;15.10;99.90
59075;DHT22;44860;53.020;6.738;2022-10-15T12:39:21;15.10;99.90
59075;DHT22;44860;53.020;6.738;2022-10-15T12:41:48;15.20;99.90
59075;DHT22;44860;53.020;6.738;2022-10-15T12:44:24;15.20;99.90
59075;DHT22;44860;53.020;6.738;2022-10-15T12:46:51;15.30;99.90
59075;DHT22;44860;53.020;6.738;2022-10-15T12:51:58;15.30;99.90
59075;DHT22;44860;53.020;6.738;2022-10-15T12:54:44;15.40;99.90
59075;DHT22;44860;53.020;6.738;2022-10-15T13:02:46;15.30;99.90
59075;DHT22;44860;53.020;6.738;2022-10-15T13:05:32;15.30;99.90
59075;DHT22;44860;53.020;6.738;2022-10-15T13:08:00;15.30;99.90
59075;DHT22;44860;53.020;6.738;2022-10-15T13:10:29;15.30;99.90
59075;DHT22;44860;53.020;6.738;2022-10-15T13:13:02;15.30;99.90
59075;DHT22;44860;53.020;6.738;2022-10-15T13:15:30;15.20;99.90
59075;DHT22;44860;53.020;6.738;2022-10-15T13:17:58;15.20;99.90
59075;DHT22;44860;53.020;6.738;2022-10-15T13:20:35;15.20;99.90
59075;DHT22;44860;53.020;6.738;2022-10-15T13:23:17;15.20;99.90
59075;DHT22;44860;53.020;6.738;2022-10-15T13:25:43;15.20;99.90
59075;DHT22;44860;53.020;6.738;2022-10-15T13:28:28;15.20;99.90
59075;DHT22;44860;53.020;6.738;2022-10-15T13:30:55;15.20;99.90
59075;DHT22;44860;53.020;6.738;2022-10-15T13:33:21;15.20;99.90
59075;DHT22;44860;53.020;6.738;2022-10-15T13:35:47;15.10;99.90
59075;DHT22;44860;53.020;6.738;2022-10-15T13:38:23;15.10;99.90
59075;DHT22;44860;53.020;6.738;2022-10-15T13:40:52;15.10;99.90
59075;DHT22;44860;53.020;6.738;2022-10-15T13:43:23;15.10;99.90
59075;DHT22;44860;53.020;6.738;2022-10-15T13:45:53;15.10;99.90
59075;DHT22;44860;53.020;6.738;2022-10-15T13:48:21;15.10;99.90
59075;DHT22;44860;53.020;6.738;2022-10-15T13:50:52;15.10;99.90
59075;DHT22;44860;53.020;6.738;2022-10-15T13:55:55;15.10;99.90
59075;DHT22;44860;53.020;6.738;2022-10-15T13:58:27;15.10;99.90
59075;DHT22;44860;53.020;6.738;2022-10-15T14:01:15;15.10;99.90
59075;DHT22;44860;53.020;6.738;2022-10-15T14:03:52;15.10;99.90
59075;DHT22;44860;53.020;6.738;2022-10-15T14:06:22;15.10;99.90
59075;DHT22;44860;53.020;6.738;2022-10-15T14:08:53;15.10;99.90
59075;DHT22;44860;53.020;6.738;2022-10-15T14:11:20;15.10;99.90
59075;DHT22;44860;53.020;6.738;2022-10-15T14:18:56;15.20;99.90
59075;DHT22;44860;53.020;6.738;2022-10-15T14:21:24;15.20;99.90
59075;DHT22;44860;53.020;6.738;2022-10-15T14:24:12;15.20;99.90
59075;DHT22;44860;53.020;6.738;2022-10-15T14:26:39;15.20;99.90
59075;DHT22;44860;53.020;6.738;2022-10-15T14:29:05;15.20;99.90
59075;DHT22;44860;53.020;6.738;2022-10-15T14:31:39;15.20;99.90
59075;DHT22;44860;53.020;6.738;2022-10-15T14:36:50;15.20;99.90
59075;DHT22;44860;53.020;6.738;2022-10-15T14:42:05;15.30;99.90
59075;DHT22;44860;53.020;6.738;2022-10-15T14:44:45;15.20;99.90
59075;DHT22;44860;53.020;6.738;2022-10-15T14:47:38;15.20;99.90
59075;DHT22;44860;53.020;6.738;2022-10-15T14:50:04;15.30;99.90
59075;DHT22;44860;53.020;6.738;2022-10-15T14:52:31;15.30;99.90
59075;DHT22;44860;53.020;6.738;2022-10-15T14:58:00;15.30;99.90
59075;DHT22;44860;53.020;6.738;2022-10-15T15:00:33;15.30;99.90
59075;DHT22;44860;53.020;6.738;2022-10-15T15:03:04;15.30;99.90
59075;DHT22;44860;53.020;6.738;2022-10-15T15:05:43;15.30;99.90
59075;DHT22;44860;53.020;6.738;2022-10-15T15:08:08;15.30;99.90
59075;DHT22;44860;53.020;6.738;2022-10-15T15:10:34;15.30;99.90
59075;DHT22;44860;53.020;6.738;2022-10-15T15:13:00;15.30;99.90
59075;DHT22;44860;53.020;6.738;2022-10-15T15:15:25;15.30;99.90
59075;DHT22;44860;53.020;6.738;2022-10-15T15:17:52;15.30;99.90
59075;DHT22;44860;53.020;6.738;2022-10-15T15:20:19;15.30;99.90
59075;DHT22;44860;53.020;6.738;2022-10-15T15:22:47;15.40;99.90
59075;DHT22;44860;53.020;6.738;2022-10-15T15:25:23;15.30;99.90
59075;DHT22;44860;53.020;6.738;2022-10-15T15:27:49;15.30;99.90
59075;DHT22;44860;53.020;6.738;2022-10-15T15:30:26;15.40;99.90
59075;DHT22;44860;53.020;6.738;2022-10-15T15:32:51;15.40;99.90
59075;DHT22;44860;53.020;6.738;2022-10-15T15:35:27;15.40;99.90
59075;DHT22;44860;53.020;6.738;2022-10-15T15:37:54;15.40;99.90
59075;DHT22;44860;53.020;6.738;2022-10-15T15:40:20;15.40;99.90
59075;DHT22;44860;53.020;6.738;2022-10-15T15:42:46;15.40;99.90
59075;DHT22;44860;53.020;6.738;2022-10-15T15:45:24;15.40;99.90
59075;DHT22;44860;53.020;6.738;2022-10-15T15:47:50;15.40;99.90
59075;DHT22;44860;53.020;6.738;2022-10-15T15:50:17;15.40;99.90
59075;DHT22;44860;53.020;6.738;2022-10-15T15:52:43;15.40;99.90
59075;DHT22;44860;53.020;6.738;2022-10-15T15:55:09;15.40;99.90
59075;DHT22;44860;53.020;6.738;2022-10-15T15:57:35;15.40;99.90
59075;DHT22;44860;53.020;6.738;2022-10-15T16:00:01;15.40;99.90
59075;DHT22;44860;53.020;6.738;2022-10-15T16:02:27;15.30;99.90
59075;DHT22;44860;53.020;6.738;2022-10-15T16:04:52;15.30;99.90
59075;DHT22;44860;53.020;6.738;2022-10-15T16:07:18;15.30;99.90
59075;DHT22;44860;53.020;6.738;2022-10-15T16:09:43;15.30;99.90
59075;DHT22;44860;53.020;6.738;2022-10-15T16:12:09;15.40;99.90
59075;DHT22;44860;53.020;6.738;2022-10-15T16:14:35;15.30;99.90
59075;DHT22;44860;53.020;6.738;2022-10-15T16:17:00;15.30;99.90
59075;DHT22;44860;53.020;6.738;2022-10-15T16:19:26;15.30;99.90
59075;DHT22;44860;53.020;6.738;2022-10-15T16:21:52;15.30;99.90
59075;DHT22;44860;53.020;6.738;2022-10-15T16:24:17;15.30;99.90
59075;DHT22;44860;53.020;6.738;2022-10-15T16:26:43;15.20;99.90
59075;DHT22;44860;53.020;6.738;2022-10-15T16:29:08;15.20;99.90
59075;DHT22;44860;53.020;6.738;2022-10-15T16:31:34;15.20;99.90
59075;DHT22;44860;53.020;6.738;2022-10-15T16:34:03;15.20;99.90
59075;DHT22;44860;53.020;6.738;2022-10-15T16:36:29;15.20;99.90
59075;DHT22;44860;53.020;6.738;2022-10-15T16:38:55;15.20;99.90
59075;DHT22;44860;53.020;6.738;2022-10-15T16:41:20;15.20;99.90
59075;DHT22;44860;53.020;6.738;2022-10-15T16:43:47;15.20;99.90
59075;DHT22;44860;53.020;6.738;2022-10-15T16:46:14;15.20;99.90
59075;DHT22;44860;53.020;6.738;2022-10-15T16:48:40;15.10;99.90
59075;DHT22;44860;53.020;6.738;2022-10-15T16:51:15;15.10;99.90
59075;DHT22;44860;53.020;6.738;2022-10-15T16:53:43;15.10;99.90
59075;DHT22;44860;53.020;6.738;2022-10-15T16:56:15;15.10;99.90
59075;DHT22;44860;53.020;6.738;2022-10-15T16:58:41;15.10;99.90
59075;DHT22;44860;53.020;6.738;2022-10-15T17:01:11;15.00;99.90
59075;DHT22;44860;53.020;6.738;2022-10-15T17:03:38;15.00;99.90
59075;DHT22;44860;53.020;6.738;2022-10-15T17:06:07;15.00;99.90
59075;DHT22;44860;53.020;6.738;2022-10-15T17:11:01;14.90;99.90
59075;DHT22;44860;53.020;6.738;2022-10-15T17:13:27;14.90;99.90
59075;DHT22;44860;53.020;6.738;2022-10-15T17:15:52;14.90;99.90
59075;DHT22;44860;53.020;6.738;2022-10-15T17:18:18;14.90;99.90
59075;DHT22;44860;53.020;6.738;2022-10-15T17:20:47;14.80;99.90
59075;DHT22;44860;53.020;6.738;2022-10-15T17:23:14;14.80;99.90
59075;DHT22;44860;53.020;6.738;2022-10-15T17:25:40;14.80;99.90
59075;DHT22;44860;53.020;6.738;2022-10-15T17:28:07;14.70;99.90
59075;DHT22;44860;53.020;6.738;2022-10-15T17:30:36;14.70;99.90
59075;DHT22;44860;53.020;6.738;2022-10-15T17:33:05;14.70;99.90
59075;DHT22;44860;53.020;6.738;2022-10-15T17:35:35;14.60;99.90
59075;DHT22;44860;53.020;6.738;2022-10-15T17:38:02;14.60;99.90
59075;DHT22;44860;53.020;6.738;2022-10-15T17:40:27;14.60;99.90